createdAt,value
2018-12-27T00:01:24.545Z,22.77
2018-12-27T00:04:12.244Z,23.37
2018-12-27T00:07:00.260Z,28.13
2018-12-27T00:09:47.979Z,20.60
2018-12-27T00:12:35.721Z,21.20
2018-12-27T00:15:23.767Z,25.13
2018-12-27T00:18:11.459Z,20.33
2018-12-27T00:20:59.164Z,27.40
2018-12-27T00:23:46.850Z,23.90
2018-12-27T00:26:34.548Z,19.53
2018-12-27T00:29:22.249Z,21.60
2018-12-27T00:32:03.484Z,24.70
2018-12-27T00:34:44.110Z,20.20
2018-12-27T00:37:24.590Z,25.13
2018-12-27T00:40:05.316Z,23.10
2018-12-27T00:42:46.032Z,23.33
2018-12-27T00:45:26.916Z,19.70
2018-12-27T00:48:07.289Z,23.63
2018-12-27T00:50:48.064Z,21.83
2018-12-27T00:53:29.049Z,24.97
2018-12-27T00:56:09.900Z,23.70
2018-12-27T00:58:50.391Z,26.90
2018-12-27T01:01:31.278Z,23.93
2018-12-27T01:04:12.096Z,25.80
2018-12-27T01:06:52.883Z,23.00
2018-12-27T01:09:33.898Z,26.43
2018-12-27T01:12:14.437Z,28.03
2018-12-27T01:14:55.234Z,23.50
2018-12-27T01:17:36.272Z,24.40
2018-12-27T01:20:17.058Z,25.97
2018-12-27T01:22:57.887Z,26.30
2018-12-27T01:25:38.437Z,23.63
2018-12-27T01:28:19.080Z,27.43
2018-12-27T01:30:59.825Z,26.60
2018-12-27T01:33:40.611Z,24.10
2018-12-27T01:36:21.366Z,27.90
2018-12-27T01:39:02.172Z,30.70
2018-12-27T01:41:42.608Z,32.77
2018-12-27T01:44:23.333Z,29.43
2018-12-27T01:47:04.049Z,29.03
2018-12-27T01:49:44.775Z,26.87
2018-12-27T01:52:25.726Z,27.43
2018-12-27T01:55:06.416Z,30.63
2018-12-27T01:57:46.911Z,29.20
2018-12-27T02:00:27.614Z,30.17
2018-12-27T02:03:08.668Z,29.83
2018-12-27T02:05:49.442Z,21.53
2018-12-27T02:08:30.183Z,25.47
2018-12-27T02:11:10.936Z,28.03
2018-12-27T02:13:51.566Z,26.67
2018-12-27T02:16:31.922Z,29.53
2018-12-27T02:19:12.846Z,33.47
2018-12-27T02:21:53.630Z,25.70
2018-12-27T02:24:34.377Z,31.60
2018-12-27T02:27:15.269Z,25.63
2018-12-27T02:29:55.919Z,29.67
2018-12-27T02:32:36.648Z,28.33
2018-12-27T02:35:17.562Z,29.17
2018-12-27T02:37:58.091Z,25.63
2018-12-27T02:40:38.601Z,29.90
2018-12-27T02:43:19.210Z,27.07
2018-12-27T02:45:59.716Z,27.80
2018-12-27T02:48:40.412Z,25.57
2018-12-27T02:51:20.859Z,26.83
2018-12-27T02:54:01.832Z,28.30
2018-12-27T02:56:42.472Z,22.63
2018-12-27T02:59:22.957Z,29.97
2018-12-27T03:02:03.625Z,25.97
2018-12-27T03:04:44.294Z,30.03
2018-12-27T03:07:25.084Z,28.33
2018-12-27T03:10:05.917Z,30.40
2018-12-27T03:12:46.581Z,31.13
2018-12-27T03:15:27.510Z,30.43
2018-12-27T03:18:08.273Z,25.77
2018-12-27T03:20:49.340Z,27.13
2018-12-27T03:23:30.204Z,29.23
2018-12-27T03:26:11.111Z,26.67
2018-12-27T03:28:51.684Z,27.40
2018-12-27T03:31:32.522Z,28.83
2018-12-27T03:34:12.992Z,30.27
2018-12-27T03:36:53.500Z,24.03
2018-12-27T03:39:33.791Z,30.67
2018-12-27T03:42:14.889Z,26.80
2018-12-27T03:44:55.679Z,26.10
2018-12-27T03:47:36.688Z,24.77
2018-12-27T03:50:17.494Z,23.23
2018-12-27T03:52:58.342Z,26.07
2018-12-27T03:55:39.095Z,25.50
2018-12-27T03:58:19.758Z,24.30
2018-12-27T04:01:00.499Z,24.30
2018-12-27T04:03:41.371Z,28.47
2018-12-27T04:06:22.139Z,26.37
2018-12-27T04:09:02.729Z,23.40
2018-12-27T04:11:43.840Z,28.57
2018-12-27T04:14:24.581Z,23.53
2018-12-27T04:17:05.427Z,26.27
2018-12-27T04:19:46.135Z,22.33
2018-12-27T04:22:26.887Z,20.83
2018-12-27T04:25:07.298Z,20.10
2018-12-27T04:27:47.628Z,23.93
2018-12-27T04:30:28.133Z,25.00
2018-12-27T04:33:09.036Z,26.00
2018-12-27T04:35:49.458Z,22.73
2018-12-27T04:38:30.259Z,24.87
2018-12-27T04:41:10.664Z,26.73
2018-12-27T04:43:51.353Z,27.67
2018-12-27T04:46:32.136Z,27.30
2018-12-27T04:49:12.845Z,28.33
2018-12-27T04:51:53.210Z,24.47
2018-12-27T04:54:34.506Z,24.40
2018-12-27T04:57:15.681Z,24.90
2018-12-27T04:59:56.564Z,25.43
2018-12-27T05:02:36.914Z,28.47
2018-12-27T05:05:17.873Z,20.27
2018-12-27T05:07:58.390Z,23.43
2018-12-27T05:10:39.228Z,25.70
2018-12-27T05:13:20.100Z,25.57
2018-12-27T05:16:01.151Z,22.97
2018-12-27T05:18:41.848Z,25.43
2018-12-27T05:21:22.796Z,26.10
2018-12-27T05:24:03.529Z,21.37
2018-12-27T05:26:44.388Z,23.33
2018-12-27T05:29:25.062Z,26.90
2018-12-27T05:32:05.890Z,25.23
2018-12-27T05:34:46.784Z,25.50
2018-12-27T05:37:27.589Z,27.30
2018-12-27T05:40:08.572Z,24.33
2018-12-27T05:42:49.026Z,27.03
2018-12-27T05:45:29.517Z,23.57
2018-12-27T05:48:10.508Z,27.77
2018-12-27T05:50:50.980Z,24.20
2018-12-27T05:53:31.792Z,23.57
2018-12-27T05:56:12.564Z,24.83
2018-12-27T05:58:53.143Z,25.87
2018-12-27T06:01:34.106Z,23.17
2018-12-27T06:04:15.139Z,30.17
2018-12-27T06:06:55.863Z,25.93
2018-12-27T06:09:36.828Z,25.37
2018-12-27T06:12:17.601Z,29.37
2018-12-27T06:14:58.549Z,29.20
2018-12-27T06:17:39.161Z,27.73
2018-12-27T06:20:19.971Z,28.17
2018-12-27T06:23:00.736Z,24.03
2018-12-27T06:25:41.561Z,26.30
2018-12-27T06:28:22.090Z,26.73
2018-12-27T06:31:02.828Z,23.93
2018-12-27T06:33:43.284Z,27.60
2018-12-27T06:36:23.616Z,29.70
2018-12-27T06:39:04.882Z,33.77
2018-12-27T06:41:45.907Z,29.03
2018-12-27T06:44:26.372Z,35.00
2018-12-27T06:47:07.192Z,33.00
2018-12-27T06:49:47.909Z,30.30
2018-12-27T06:52:28.907Z,30.40
2018-12-27T06:55:09.384Z,33.57
2018-12-27T06:57:50.100Z,32.47
2018-12-27T07:00:31.113Z,32.00
2018-12-27T07:03:12.128Z,28.57
2018-12-27T07:05:53.110Z,35.53
2018-12-27T07:08:33.800Z,32.80
2018-12-27T07:11:14.383Z,36.03
2018-12-27T07:13:55.332Z,33.67
2018-12-27T07:16:36.456Z,39.53
2018-12-27T07:19:17.191Z,34.73
2018-12-27T07:21:57.779Z,38.87
2018-12-27T07:24:38.500Z,37.77
2018-12-27T07:27:19.720Z,36.57
2018-12-27T07:30:00.327Z,43.47
2018-12-27T07:32:41.152Z,44.80
2018-12-27T07:35:22.148Z,44.13
2018-12-27T07:38:02.827Z,42.77
2018-12-27T07:40:43.807Z,46.87
2018-12-27T07:43:24.222Z,49.80
2018-12-27T07:46:10.865Z,43.87
2018-12-27T07:48:47.688Z,46.83
2018-12-27T07:51:28.418Z,45.17
2018-12-27T07:54:09.557Z,49.13
2018-12-27T07:56:49.811Z,37.33
2018-12-27T07:59:30.798Z,41.43
2018-12-27T08:02:11.423Z,40.80
2018-12-27T08:04:52.160Z,41.57
2018-12-27T08:07:33.189Z,43.43
2018-12-27T08:10:13.772Z,48.43
2018-12-27T08:12:54.579Z,44.87
2018-12-27T08:15:35.462Z,52.40
2018-12-27T08:18:15.964Z,42.87
2018-12-27T08:20:59.486Z,47.00
2018-12-27T08:23:40.234Z,41.00
2018-12-27T08:26:21.549Z,43.70
2018-12-27T08:29:02.023Z,47.13
2018-12-27T08:31:42.877Z,46.30
2018-12-27T08:34:23.720Z,44.53
2018-12-27T08:37:04.396Z,42.43
2018-12-27T08:39:45.049Z,49.13
2018-12-27T08:42:25.788Z,44.30
2018-12-27T08:45:06.343Z,41.37
2018-12-27T08:47:47.302Z,36.83
2018-12-27T08:50:27.824Z,40.60
2018-12-27T08:53:08.648Z,38.47
2018-12-27T08:55:49.440Z,39.50
2018-12-27T08:58:29.760Z,40.17
2018-12-27T09:01:10.412Z,38.43
2018-12-27T09:03:51.214Z,42.03
2018-12-27T09:06:32.209Z,40.83
2018-12-27T09:09:13.390Z,46.97
2018-12-27T09:11:54.550Z,37.87
2018-12-27T09:14:35.398Z,34.20
2018-12-27T09:17:16.051Z,45.30
2018-12-27T09:19:56.732Z,37.70
2018-12-27T09:22:37.771Z,36.03
2018-12-27T09:25:18.568Z,42.67
2018-12-27T09:27:59.206Z,37.80
2018-12-27T09:30:40.090Z,45.23
2018-12-27T09:33:20.884Z,39.40
2018-12-27T09:36:01.846Z,40.13
2018-12-27T09:38:42.657Z,42.60
2018-12-27T09:41:22.987Z,39.00
2018-12-27T09:44:04.008Z,41.20
2018-12-27T09:46:44.778Z,42.13
2018-12-27T09:49:25.895Z,39.47
2018-12-27T09:52:04.534Z,40.17
2018-12-27T09:54:52.215Z,37.70
2018-12-27T09:57:40.213Z,35.10
2018-12-27T10:00:27.971Z,38.17
2018-12-27T10:03:15.674Z,40.87
2018-12-27T10:06:04.600Z,32.90
2018-12-27T10:08:53.076Z,35.77
2018-12-27T10:11:40.788Z,39.13
2018-12-27T10:14:28.488Z,40.23
2018-12-27T10:17:16.484Z,38.37
2018-12-27T10:20:04.440Z,41.13
2018-12-27T10:22:52.138Z,39.73
2018-12-27T10:25:40.185Z,35.03
2018-12-27T10:28:27.887Z,35.57
2018-12-27T10:31:15.571Z,36.93
2018-12-27T10:33:55.826Z,39.50
2018-12-27T10:36:36.579Z,35.07
2018-12-27T10:39:17.264Z,33.73
2018-12-27T10:41:58.482Z,37.07
2018-12-27T10:44:39.327Z,33.00
2018-12-27T10:47:19.857Z,36.80
2018-12-27T10:50:00.326Z,32.17
2018-12-27T10:52:40.853Z,39.43
2018-12-27T10:55:21.276Z,38.63
2018-12-27T10:58:02.090Z,36.97
2018-12-27T11:00:42.909Z,36.40
2018-12-27T11:03:30.275Z,40.17
2018-12-27T11:06:06.257Z,40.10
2018-12-27T11:08:47.144Z,33.90
2018-12-27T11:11:27.512Z,33.87
2018-12-27T11:14:08.281Z,33.10
2018-12-27T11:16:49.095Z,35.90
2018-12-27T11:19:30.040Z,29.77
2018-12-27T11:22:10.914Z,34.70
2018-12-27T11:24:51.386Z,33.17
2018-12-27T11:27:31.964Z,35.17
2018-12-27T11:30:12.607Z,31.47
2018-12-27T11:32:53.164Z,33.90
2018-12-27T11:35:33.901Z,34.00
2018-12-27T11:38:14.880Z,34.83
2018-12-27T11:40:55.449Z,34.60
2018-12-27T11:43:36.032Z,43.50
2018-12-27T11:46:16.703Z,37.87
2018-12-27T11:48:57.404Z,37.43
2018-12-27T11:51:38.548Z,35.23
2018-12-27T11:54:19.204Z,39.43
2018-12-27T11:57:00.036Z,33.67
2018-12-27T11:59:40.634Z,38.13
2018-12-27T12:02:21.353Z,34.63
2018-12-27T12:05:02.166Z,34.43
2018-12-27T12:07:42.984Z,36.97
2018-12-27T12:10:24.025Z,34.93
2018-12-27T12:13:04.958Z,46.20
2018-12-27T12:15:45.931Z,32.83
2018-12-27T12:18:26.760Z,44.50
2018-12-27T12:21:07.884Z,43.23
2018-12-27T12:23:48.437Z,37.00
2018-12-27T12:26:29.319Z,44.97
2018-12-27T12:29:09.544Z,41.37
2018-12-27T12:31:50.544Z,41.40
2018-12-27T12:34:31.420Z,48.07
2018-12-27T12:37:14.209Z,40.37
2018-12-27T12:39:55.054Z,43.30
2018-12-27T12:42:35.751Z,42.73
2018-12-27T12:45:16.932Z,45.40
2018-12-27T12:47:57.707Z,42.00
2018-12-27T12:50:38.160Z,48.63
2018-12-27T12:53:18.569Z,39.30
2018-12-27T12:55:59.466Z,39.20
2018-12-27T12:58:39.889Z,41.67
2018-12-27T13:01:20.738Z,43.13
2018-12-27T13:04:01.271Z,42.47
2018-12-27T13:06:42.129Z,44.83
2018-12-27T13:09:22.724Z,48.77
2018-12-27T13:12:03.292Z,46.03
2018-12-27T13:14:44.072Z,42.03
2018-12-27T13:17:24.885Z,42.73
2018-12-27T13:20:05.276Z,44.60
2018-12-27T13:22:46.045Z,41.37
2018-12-27T13:25:26.852Z,45.63
2018-12-27T13:28:07.413Z,41.90
2018-12-27T13:30:47.969Z,53.40
2018-12-27T13:33:28.607Z,63.80
2018-12-27T13:36:09.512Z,57.77
2018-12-27T13:38:50.045Z,44.80
2018-12-27T13:41:30.568Z,43.10
2018-12-27T13:44:11.473Z,45.73
2018-12-27T13:46:51.942Z,44.50
2018-12-27T13:49:32.719Z,41.70
2018-12-27T13:52:13.628Z,45.43
2018-12-27T13:54:54.693Z,45.03
2018-12-27T13:57:35.264Z,49.20
2018-12-27T14:00:15.951Z,42.43
2018-12-27T14:02:56.449Z,44.20
2018-12-27T14:05:37.075Z,36.90
2018-12-27T14:08:18.847Z,41.67
2018-12-27T14:10:59.224Z,42.93
2018-12-27T14:13:40.017Z,36.93
2018-12-27T14:16:20.608Z,35.80
2018-12-27T14:19:01.634Z,45.43
2018-12-27T14:21:42.815Z,37.23
2018-12-27T14:24:23.522Z,40.53
2018-12-27T14:27:04.413Z,38.07
2018-12-27T14:29:45.046Z,38.00
2018-12-27T14:32:25.879Z,38.63
2018-12-27T14:35:06.581Z,38.90
2018-12-27T14:37:47.343Z,38.93
2018-12-27T14:40:28.073Z,35.33
2018-12-27T14:43:08.772Z,38.33
2018-12-27T14:45:49.504Z,39.17
2018-12-27T14:48:30.700Z,39.63
2018-12-27T14:51:11.409Z,43.30
2018-12-27T14:53:51.864Z,33.60
2018-12-27T14:56:32.504Z,33.83
2018-12-27T14:59:13.382Z,32.40
2018-12-27T15:01:54.234Z,36.33
2018-12-27T15:04:35.210Z,30.10
2018-12-27T15:07:16.020Z,31.00
2018-12-27T15:09:56.551Z,33.60
2018-12-27T15:12:37.079Z,35.77
2018-12-27T15:15:17.740Z,33.47
2018-12-27T15:17:58.581Z,41.20
2018-12-27T15:20:39.506Z,36.50
2018-12-27T15:23:20.526Z,40.33
2018-12-27T15:26:00.980Z,38.27
2018-12-27T15:28:41.863Z,41.27
2018-12-27T15:31:22.395Z,42.27
2018-12-27T15:34:03.372Z,39.93
2018-12-27T15:36:44.445Z,39.30
2018-12-27T15:39:25.335Z,40.37
2018-12-27T15:42:06.088Z,39.37
2018-12-27T15:44:46.984Z,39.10
2018-12-27T15:47:27.889Z,35.77
2018-12-27T15:50:08.656Z,36.50
2018-12-27T15:52:49.362Z,36.60
2018-12-27T15:55:30.038Z,40.10
2018-12-27T15:58:10.893Z,43.00
2018-12-27T16:00:51.429Z,40.73
2018-12-27T16:03:31.970Z,43.17
2018-12-27T16:06:13.096Z,40.93
2018-12-27T16:08:53.820Z,38.80
2018-12-27T16:11:34.320Z,40.80
2018-12-27T16:14:15.003Z,41.47
2018-12-27T16:16:55.921Z,47.37
2018-12-27T16:19:36.748Z,39.33
2018-12-27T16:22:17.543Z,42.40
2018-12-27T16:24:58.040Z,38.60
2018-12-27T16:27:39.077Z,39.90
2018-12-27T16:30:19.952Z,41.63
2018-12-27T16:33:00.911Z,38.73
2018-12-27T16:35:41.756Z,38.77
2018-12-27T16:38:22.540Z,37.70
2018-12-27T16:41:03.296Z,43.13
2018-12-27T16:43:43.984Z,40.53
2018-12-27T16:46:25.209Z,40.23
2018-12-27T16:49:05.823Z,43.40
2018-12-27T16:51:46.483Z,42.87
2018-12-27T16:54:27.117Z,45.03
2018-12-27T16:57:08.046Z,40.97
2018-12-27T16:59:48.861Z,42.13
2018-12-27T17:02:29.864Z,37.67
2018-12-27T17:05:10.458Z,42.53
2018-12-27T17:07:51.298Z,47.43
2018-12-27T17:10:32.249Z,40.73
2018-12-27T17:13:12.993Z,44.07
2018-12-27T17:15:54.224Z,50.80
2018-12-27T17:18:35.355Z,45.43
2018-12-27T17:21:15.718Z,41.40
2018-12-27T17:23:56.821Z,45.60
2018-12-27T17:26:37.031Z,47.87
2018-12-27T17:29:17.991Z,44.97
2018-12-27T17:31:58.832Z,40.13
2018-12-27T17:34:39.399Z,53.13
2018-12-27T17:37:23.315Z,52.53
2018-12-27T17:40:02.597Z,52.40
2018-12-27T17:42:43.227Z,57.00
2018-12-27T17:45:23.996Z,55.90
2018-12-27T17:48:07.946Z,56.57
2018-12-27T17:50:48.400Z,54.87
2018-12-27T17:53:29.076Z,63.23
2018-12-27T17:56:09.917Z,66.27
2018-12-27T17:58:50.731Z,61.53
2018-12-27T18:01:31.418Z,62.00
2018-12-27T18:04:12.469Z,59.13
2018-12-27T18:06:53.208Z,63.00
2018-12-27T18:09:33.684Z,69.43
2018-12-27T18:12:14.693Z,59.67
2018-12-27T18:14:55.050Z,61.67
2018-12-27T18:17:35.681Z,65.30
2018-12-27T18:20:16.961Z,69.67
2018-12-27T18:22:57.296Z,61.10
2018-12-27T18:25:38.215Z,72.87
2018-12-27T18:28:18.825Z,66.17
2018-12-27T18:30:59.348Z,78.63
2018-12-27T18:33:39.941Z,69.33
2018-12-27T18:36:20.667Z,70.03
2018-12-27T18:39:01.428Z,64.17
2018-12-27T18:41:42.194Z,63.17
2018-12-27T18:44:22.904Z,73.47
2018-12-27T18:47:03.912Z,75.33
2018-12-27T18:49:45.011Z,66.13
2018-12-27T18:52:26.052Z,70.00
2018-12-27T18:55:07.725Z,72.70
2018-12-27T18:57:48.604Z,67.10
2018-12-27T19:00:29.344Z,73.13
2018-12-27T19:03:10.154Z,65.70
2018-12-27T19:05:50.763Z,63.80
2018-12-27T19:08:31.530Z,63.13
2018-12-27T19:11:12.344Z,71.23
2018-12-27T19:13:52.826Z,67.30
2018-12-27T19:16:33.300Z,69.03
2018-12-27T19:19:14.195Z,68.60
2018-12-27T19:21:54.993Z,58.27
2018-12-27T19:24:35.283Z,64.17
2018-12-27T19:27:16.429Z,89.73
2018-12-27T19:29:56.846Z,72.37
2018-12-27T19:32:37.360Z,69.30
2018-12-27T19:35:18.096Z,65.70
2018-12-27T19:37:59.089Z,62.93
2018-12-27T19:40:40.096Z,63.77
2018-12-27T19:43:21.009Z,61.33
2018-12-27T19:46:01.561Z,63.63
2018-12-27T19:48:42.898Z,60.77
2018-12-27T19:51:23.832Z,64.73
2018-12-27T19:54:04.280Z,65.27
2018-12-27T19:56:45.277Z,70.77
2018-12-27T19:59:26.086Z,68.53
2018-12-27T20:02:06.666Z,65.87
2018-12-27T20:04:47.284Z,82.00
2018-12-27T20:07:28.170Z,67.50
2018-12-27T20:10:08.829Z,65.27
2018-12-27T20:12:49.517Z,73.23
2018-12-27T20:15:29.956Z,61.23
2018-12-27T20:18:10.884Z,66.97
2018-12-27T20:20:51.343Z,65.27
2018-12-27T20:23:32.232Z,71.77
2018-12-27T20:26:13.227Z,65.70
2018-12-27T20:28:53.943Z,70.23
2018-12-27T20:31:22.256Z,59.97
2018-12-27T20:33:50.800Z,70.67
2018-12-27T20:36:19.121Z,72.37
2018-12-27T20:38:47.394Z,76.97
2018-12-27T20:41:15.684Z,74.43
2018-12-27T20:43:44.019Z,73.53
2018-12-27T20:46:12.268Z,74.83
2018-12-27T20:48:40.559Z,73.20
2018-12-27T20:51:08.894Z,71.60
2018-12-27T20:53:37.174Z,78.00
2018-12-27T20:56:05.416Z,73.67
2018-12-27T20:58:33.709Z,69.80
2018-12-27T21:01:01.978Z,74.90
2018-12-27T21:03:30.260Z,73.60
2018-12-27T21:05:58.518Z,76.90
2018-12-27T21:08:26.856Z,72.87
2018-12-27T21:10:55.184Z,72.97
2018-12-27T21:13:23.476Z,74.00
2018-12-27T21:15:51.732Z,75.07
2018-12-27T21:18:20.040Z,75.07
2018-12-27T21:20:48.544Z,79.10
2018-12-27T21:23:16.818Z,79.70
2018-12-27T21:25:45.080Z,88.57
2018-12-27T21:28:13.358Z,79.40
2018-12-27T21:30:41.716Z,78.07
2018-12-27T21:33:10.339Z,73.87
2018-12-27T21:35:38.661Z,73.87
2018-12-27T21:38:06.898Z,74.53
2018-12-27T21:40:35.174Z,74.87
2018-12-27T21:43:03.427Z,71.20
2018-12-27T21:45:31.947Z,61.40
2018-12-27T21:48:00.221Z,72.47
2018-12-27T21:50:28.518Z,62.07
2018-12-27T21:52:56.758Z,64.77
2018-12-27T21:55:25.033Z,59.53
2018-12-27T21:57:53.586Z,60.03
2018-12-27T22:00:21.959Z,63.43
2018-12-27T22:02:50.219Z,71.17
2018-12-27T22:05:18.522Z,59.50
2018-12-27T22:07:46.771Z,63.93
2018-12-27T22:10:15.053Z,68.00
2018-12-27T22:12:43.309Z,62.13
2018-12-27T22:15:11.578Z,73.60
2018-12-27T22:17:39.865Z,70.20
2018-12-27T22:20:08.433Z,67.70
2018-12-27T22:22:36.700Z,66.77
2018-12-27T22:25:05.334Z,70.53
2018-12-27T22:27:33.580Z,67.70
2018-12-27T22:30:01.922Z,68.00
2018-12-27T22:32:30.183Z,62.63
2018-12-27T22:34:58.457Z,62.70
2018-12-27T22:37:27.105Z,63.93
2018-12-27T22:39:55.456Z,62.43
2018-12-27T22:42:23.881Z,68.27
2018-12-27T22:44:52.178Z,68.37
2018-12-27T22:47:20.432Z,60.30
2018-12-27T22:49:48.935Z,66.50
2018-12-27T22:52:17.204Z,68.27
2018-12-27T22:54:45.743Z,62.93
2018-12-27T22:57:14.298Z,63.53
2018-12-27T22:59:42.548Z,63.03
2018-12-27T23:02:10.819Z,57.17
2018-12-27T23:04:39.073Z,60.83
2018-12-27T23:07:07.357Z,63.40
2018-12-27T23:09:35.624Z,69.67
2018-12-27T23:12:03.913Z,70.40
2018-12-27T23:14:32.170Z,75.47
2018-12-27T23:17:00.450Z,72.63
2018-12-27T23:19:28.765Z,68.23
2018-12-27T23:21:57.028Z,68.50
2018-12-27T23:24:25.275Z,69.50
2018-12-27T23:26:53.552Z,72.83
2018-12-27T23:29:21.803Z,77.27
2018-12-27T23:31:50.059Z,76.00
2018-12-27T23:34:18.582Z,74.23
2018-12-27T23:36:46.851Z,63.63
2018-12-27T23:39:15.104Z,73.37
2018-12-27T23:41:43.372Z,63.67
2018-12-27T23:44:11.621Z,69.80
2018-12-27T23:46:39.885Z,69.67
2018-12-27T23:49:08.133Z,71.37
2018-12-27T23:51:36.402Z,70.83
2018-12-27T23:54:04.648Z,73.23
2018-12-27T23:56:32.920Z,71.30
2018-12-27T23:59:01.162Z,71.77
